OS101 LOWW-LOWI
Flight info
| Callsign | OS101 |
|---|---|
| Flight time | 0h 40m |
| Altitude | 22000 |
| Route | LUGEM DCT SITNI DCT NANIT NANIT2A |
| Aircraft | A320/M-SDE3FGHIRWY/LB1 |
Departure
| Time | 2026-04-21 12:13 |
|---|---|
| Airport | Vienna International Airport (LOWW) |
Arrival
| Time | 2026-04-21 12:53 |
|---|---|
| Airport | Innsbruck Airport (LOWI) |
| Time | Latitude | Longitude | Altitude | Speed | Heading |
|---|---|---|---|---|---|
| 2026-04-21 11:41 | 48.11462 | 16.57012 | 613 ft | 0 kts | 206° |
| 2026-04-21 12:07 | 48.11460 | 16.57011 | 612 ft | 2 kts | 206° |
| 2026-04-21 12:07 | 48.11431 | 16.56989 | 621 ft | 5 kts | 206° |
| 2026-04-21 12:07 | 48.11403 | 16.56977 | 612 ft | 3 kts | 172° |
| 2026-04-21 12:07 | 48.11392 | 16.56998 | 612 ft | 2 kts | 115° |
| 2026-04-21 12:08 | 48.11379 | 16.57037 | 615 ft | 10 kts | 116° |
| 2026-04-21 12:08 | 48.11343 | 16.57143 | 614 ft | 11 kts | 116° |
| 2026-04-21 12:08 | 48.11311 | 16.57240 | 619 ft | 10 kts | 116° |
| 2026-04-21 12:08 | 48.11282 | 16.57326 | 614 ft | 9 kts | 116° |
| 2026-04-21 12:09 | 48.11258 | 16.57401 | 612 ft | 8 kts | 116° |
| 2026-04-21 12:09 | 48.11236 | 16.57468 | 614 ft | 7 kts | 115° |
| 2026-04-21 12:09 | 48.11218 | 16.57525 | 611 ft | 6 kts | 115° |
| 2026-04-21 12:09 | 48.11203 | 16.57575 | 613 ft | 5 kts | 115° |
| 2026-04-21 12:10 | 48.11186 | 16.57602 | 614 ft | 3 kts | 163° |
| 2026-04-21 12:10 | 48.11170 | 16.57609 | 621 ft | 2 kts | 164° |
| 2026-04-21 12:10 | 48.11134 | 16.57585 | 615 ft | 9 kts | 211° |
| 2026-04-21 12:10 | 48.11086 | 16.57534 | 611 ft | 8 kts | 215° |
| 2026-04-21 12:11 | 48.11041 | 16.57498 | 609 ft | 7 kts | 207° |
| 2026-04-21 12:11 | 48.11002 | 16.57467 | 612 ft | 6 kts | 207° |
| 2026-04-21 12:11 | 48.10968 | 16.57440 | 621 ft | 5 kts | 209° |
| 2026-04-21 12:11 | 48.10957 | 16.57403 | 619 ft | 3 kts | 281° |
| 2026-04-21 12:12 | 48.10965 | 16.57376 | 617 ft | 2 kts | 293° |
| 2026-04-21 12:12 | 48.10982 | 16.57322 | 612 ft | 22 kts | 294° |
| 2026-04-21 12:12 | 48.11173 | 16.56740 | 621 ft | 100 kts | 296° |
| 2026-04-21 12:12 | 48.11571 | 16.55526 | 615 ft | 157 kts | 297° |
| 2026-04-21 12:13 | 48.12069 | 16.53993 | 1161 ft | 164 kts | 292° |
| 2026-04-21 12:13 | 48.12248 | 16.52308 | 1941 ft | 167 kts | 268° |
| 2026-04-21 12:13 | 48.11928 | 16.50602 | 2579 ft | 180 kts | 244° |
| 2026-04-21 12:13 | 48.11278 | 16.48866 | 2915 ft | 203 kts | 242° |
| 2026-04-21 12:14 | 48.10536 | 16.46911 | 3264 ft | 229 kts | 242° |
| 2026-04-21 12:14 | 48.09704 | 16.44732 | 3771 ft | 253 kts | 242° |
| 2026-04-21 12:14 | 48.08925 | 16.42318 | 4552 ft | 261 kts | 258° |
| 2026-04-21 12:14 | 48.08816 | 16.39600 | 5467 ft | 263 kts | 276° |
| 2026-04-21 12:15 | 48.09082 | 16.36908 | 6416 ft | 266 kts | 282° |
| 2026-04-21 12:15 | 48.09462 | 16.34180 | 7348 ft | 269 kts | 283° |
| 2026-04-21 12:15 | 48.09839 | 16.31417 | 8255 ft | 273 kts | 282° |
| 2026-04-21 12:15 | 48.10179 | 16.28591 | 9142 ft | 277 kts | 281° |
| 2026-04-21 12:16 | 48.10480 | 16.25726 | 10010 ft | 281 kts | 279° |
| 2026-04-21 12:16 | 48.10762 | 16.22732 | 10469 ft | 302 kts | 279° |
| 2026-04-21 12:16 | 48.11044 | 16.19489 | 10751 ft | 326 kts | 278° |
| 2026-04-21 12:16 | 48.11336 | 16.15990 | 11032 ft | 348 kts | 278° |
| 2026-04-21 12:17 | 48.11628 | 16.12343 | 11637 ft | 356 kts | 277° |
| 2026-04-21 12:17 | 48.11916 | 16.08630 | 12359 ft | 361 kts | 277° |
| 2026-04-21 12:17 | 48.12205 | 16.04885 | 13076 ft | 365 kts | 277° |
| 2026-04-21 12:17 | 48.12502 | 16.01085 | 13776 ft | 369 kts | 277° |
| 2026-04-21 12:18 | 48.12802 | 15.97254 | 14456 ft | 373 kts | 277° |
| 2026-04-21 12:18 | 48.13103 | 15.93435 | 15112 ft | 376 kts | 277° |
| 2026-04-21 12:18 | 48.13411 | 15.89518 | 15766 ft | 380 kts | 277° |
| 2026-04-21 12:18 | 48.13719 | 15.85568 | 16401 ft | 383 kts | 277° |
| 2026-04-21 12:19 | 48.14027 | 15.81594 | 17029 ft | 387 kts | 277° |
| 2026-04-21 12:19 | 48.14338 | 15.77547 | 17646 ft | 390 kts | 277° |
| 2026-04-21 12:19 | 48.14649 | 15.73497 | 18260 ft | 394 kts | 277° |
| 2026-04-21 12:19 | 48.14962 | 15.69395 | 18854 ft | 397 kts | 277° |
| 2026-04-21 12:20 | 48.15277 | 15.65267 | 19421 ft | 401 kts | 277° |
| 2026-04-21 12:20 | 48.15589 | 15.61165 | 19958 ft | 404 kts | 277° |
| 2026-04-21 12:20 | 48.15907 | 15.56967 | 20479 ft | 407 kts | 277° |
| 2026-04-21 12:20 | 48.16224 | 15.52735 | 20986 ft | 410 kts | 277° |
| 2026-04-21 12:21 | 48.16541 | 15.48473 | 21473 ft | 413 kts | 277° |
| 2026-04-21 12:21 | 48.16839 | 15.44177 | 21917 ft | 416 kts | 275° |
| 2026-04-21 12:21 | 48.16833 | 15.39821 | 22055 ft | 420 kts | 266° |
| 2026-04-21 12:21 | 48.16388 | 15.35428 | 22086 ft | 434 kts | 258° |
| 2026-04-21 12:22 | 48.15526 | 15.31031 | 22082 ft | 445 kts | 253° |
| 2026-04-21 12:22 | 48.14585 | 15.26603 | 22081 ft | 448 kts | 253° |
| 2026-04-21 12:22 | 48.13638 | 15.22138 | 22082 ft | 449 kts | 253° |
| 2026-04-21 12:22 | 48.12695 | 15.17670 | 22082 ft | 449 kts | 253° |
| 2026-04-21 12:23 | 48.11755 | 15.13219 | 22082 ft | 449 kts | 253° |
| 2026-04-21 12:23 | 48.10813 | 15.08763 | 22082 ft | 449 kts | 253° |
| 2026-04-21 12:23 | 48.09870 | 15.04298 | 22082 ft | 449 kts | 253° |
| 2026-04-21 12:23 | 48.08928 | 14.99854 | 22082 ft | 449 kts | 253° |
| 2026-04-21 12:24 | 48.07983 | 14.95403 | 22082 ft | 449 kts | 253° |
| 2026-04-21 12:24 | 48.07048 | 14.91011 | 22081 ft | 449 kts | 253° |
| 2026-04-21 12:24 | 48.06094 | 14.86566 | 22079 ft | 449 kts | 253° |
| 2026-04-21 12:24 | 48.05123 | 14.82132 | 22077 ft | 449 kts | 252° |
| 2026-04-21 12:25 | 48.04084 | 14.77736 | 22075 ft | 449 kts | 251° |
| 2026-04-21 12:25 | 48.02985 | 14.73373 | 22071 ft | 449 kts | 250° |
| 2026-04-21 12:25 | 48.01855 | 14.69037 | 22069 ft | 449 kts | 249° |
| 2026-04-21 12:25 | 48.00715 | 14.64694 | 22070 ft | 449 kts | 249° |
| 2026-04-21 12:26 | 47.99584 | 14.60353 | 22068 ft | 449 kts | 250° |
| 2026-04-21 12:26 | 47.98463 | 14.56006 | 22069 ft | 449 kts | 250° |
| 2026-04-21 12:26 | 47.97349 | 14.51651 | 22068 ft | 449 kts | 250° |
| 2026-04-21 12:26 | 47.96237 | 14.47296 | 22070 ft | 449 kts | 250° |
| 2026-04-21 12:27 | 47.95124 | 14.42939 | 22073 ft | 449 kts | 250° |
| 2026-04-21 12:27 | 47.94010 | 14.38582 | 22073 ft | 449 kts | 250° |
| 2026-04-21 12:27 | 47.92893 | 14.34230 | 22077 ft | 449 kts | 250° |
| 2026-04-21 12:27 | 47.91771 | 14.29870 | 22078 ft | 449 kts | 250° |
| 2026-04-21 12:28 | 47.90653 | 14.25518 | 22077 ft | 450 kts | 250° |
| 2026-04-21 12:28 | 47.89535 | 14.21174 | 22079 ft | 450 kts | 250° |
| 2026-04-21 12:28 | 47.88409 | 14.16825 | 22081 ft | 450 kts | 250° |
| 2026-04-21 12:28 | 47.87281 | 14.12483 | 22080 ft | 449 kts | 250° |
| 2026-04-21 12:29 | 47.86149 | 14.08144 | 22080 ft | 449 kts | 250° |
| 2026-04-21 12:29 | 47.85020 | 14.03813 | 22079 ft | 449 kts | 250° |
| 2026-04-21 12:29 | 47.83888 | 13.99482 | 22078 ft | 449 kts | 250° |
| 2026-04-21 12:29 | 47.82767 | 13.95198 | 22077 ft | 449 kts | 249° |
| 2026-04-21 12:30 | 47.81619 | 13.90811 | 22076 ft | 449 kts | 250° |
| 2026-04-21 12:30 | 47.80499 | 13.86540 | 22076 ft | 449 kts | 250° |
| 2026-04-21 12:30 | 47.79364 | 13.82215 | 22077 ft | 449 kts | 249° |
| 2026-04-21 12:30 | 47.78214 | 13.77843 | 22076 ft | 449 kts | 249° |
| 2026-04-21 12:31 | 47.77073 | 13.73521 | 22075 ft | 449 kts | 249° |
| 2026-04-21 12:31 | 47.75944 | 13.69255 | 22074 ft | 449 kts | 249° |
| 2026-04-21 12:31 | 47.74801 | 13.64935 | 22072 ft | 449 kts | 249° |
| 2026-04-21 12:31 | 47.73655 | 13.60614 | 22074 ft | 449 kts | 249° |
| 2026-04-21 12:32 | 47.72509 | 13.56304 | 22077 ft | 449 kts | 249° |
| 2026-04-21 12:32 | 47.71358 | 13.51978 | 22076 ft | 449 kts | 249° |
| 2026-04-21 12:32 | 47.70596 | 13.49120 | 22077 ft | 449 kts | 249° |
| 2026-04-21 12:32 | 47.69431 | 13.44752 | 22078 ft | 449 kts | 249° |
| 2026-04-21 12:33 | 47.68294 | 13.40491 | 22076 ft | 449 kts | 249° |
| 2026-04-21 12:33 | 47.67142 | 13.36186 | 22077 ft | 449 kts | 249° |
| 2026-04-21 12:33 | 47.65988 | 13.31882 | 22077 ft | 449 kts | 249° |
| 2026-04-21 12:33 | 47.64833 | 13.27582 | 22075 ft | 449 kts | 249° |
| 2026-04-21 12:34 | 47.63674 | 13.23284 | 22073 ft | 449 kts | 249° |
| 2026-04-21 12:34 | 47.62496 | 13.18932 | 22072 ft | 449 kts | 249° |
| 2026-04-21 12:34 | 47.61346 | 13.14698 | 22071 ft | 449 kts | 249° |
| 2026-04-21 12:34 | 47.60184 | 13.10414 | 22073 ft | 449 kts | 249° |
| 2026-04-21 12:35 | 47.59020 | 13.06118 | 22074 ft | 449 kts | 249° |
| 2026-04-21 12:35 | 47.57856 | 13.01828 | 22070 ft | 449 kts | 249° |
| 2026-04-21 12:35 | 47.56693 | 12.97552 | 22069 ft | 449 kts | 249° |
| 2026-04-21 12:35 | 47.55519 | 12.93263 | 22069 ft | 448 kts | 249° |
| 2026-04-21 12:36 | 47.54347 | 12.88983 | 22068 ft | 449 kts | 249° |
| 2026-04-21 12:36 | 47.53174 | 12.84702 | 22069 ft | 449 kts | 249° |
| 2026-04-21 12:36 | 47.51998 | 12.80422 | 22070 ft | 449 kts | 249° |
| 2026-04-21 12:36 | 47.50823 | 12.76141 | 22073 ft | 449 kts | 249° |
| 2026-04-21 12:37 | 47.49648 | 12.71873 | 22072 ft | 449 kts | 249° |
| 2026-04-21 12:37 | 47.48461 | 12.67579 | 21882 ft | 453 kts | 249° |
| 2026-04-21 12:37 | 47.47262 | 12.63252 | 20755 ft | 456 kts | 249° |
| 2026-04-21 12:37 | 47.46066 | 12.58940 | 19894 ft | 449 kts | 249° |
| 2026-04-21 12:38 | 47.44888 | 12.54687 | 18984 ft | 445 kts | 249° |
| 2026-04-21 12:38 | 47.43740 | 12.50543 | 18109 ft | 440 kts | 249° |
| 2026-04-21 12:38 | 47.42586 | 12.46392 | 17335 ft | 434 kts | 249° |
| 2026-04-21 12:38 | 47.41438 | 12.42277 | 16564 ft | 429 kts | 248° |
| 2026-04-21 12:39 | 47.40422 | 12.38163 | 15730 ft | 425 kts | 256° |
| 2026-04-21 12:39 | 47.39880 | 12.33916 | 14959 ft | 418 kts | 265° |
| 2026-04-21 12:39 | 47.39832 | 12.29647 | 14226 ft | 413 kts | 275° |
| 2026-04-21 12:39 | 47.40173 | 12.25479 | 13498 ft | 407 kts | 278° |
| 2026-04-21 12:40 | 47.40557 | 12.21350 | 12737 ft | 403 kts | 278° |
| 2026-04-21 12:40 | 47.40938 | 12.17289 | 12122 ft | 393 kts | 278° |
| 2026-04-21 12:40 | 47.41296 | 12.13455 | 11798 ft | 360 kts | 279° |
| 2026-04-21 12:40 | 47.41624 | 12.09943 | 11594 ft | 330 kts | 279° |
| 2026-04-21 12:41 | 47.41918 | 12.06768 | 11446 ft | 304 kts | 279° |
| 2026-04-21 12:41 | 47.42197 | 12.03746 | 10977 ft | 292 kts | 279° |
| 2026-04-21 12:41 | 47.42467 | 12.00805 | 10449 ft | 285 kts | 279° |
| 2026-04-21 12:41 | 47.42733 | 11.97914 | 10200 ft | 283 kts | 279° |
| 2026-04-21 12:42 | 47.42848 | 11.95021 | 9953 ft | 283 kts | 268° |
| 2026-04-21 12:42 | 47.42560 | 11.92135 | 9824 ft | 285 kts | 257° |
| 2026-04-21 12:42 | 47.41932 | 11.89396 | 9697 ft | 277 kts | 251° |
| 2026-04-21 12:42 | 47.41272 | 11.86781 | 9568 ft | 267 kts | 251° |
| 2026-04-21 12:43 | 47.40648 | 11.84299 | 9436 ft | 248 kts | 251° |
| 2026-04-21 12:43 | 47.40070 | 11.81987 | 9309 ft | 234 kts | 251° |
| 2026-04-21 12:43 | 47.39510 | 11.79739 | 9184 ft | 232 kts | 251° |
| 2026-04-21 12:43 | 47.38954 | 11.77513 | 9059 ft | 231 kts | 251° |
| 2026-04-21 12:44 | 47.38402 | 11.75308 | 8923 ft | 231 kts | 251° |
| 2026-04-21 12:44 | 47.37709 | 11.73200 | 8724 ft | 227 kts | 239° |
| 2026-04-21 12:44 | 47.36806 | 11.71267 | 8278 ft | 230 kts | 236° |
| 2026-04-21 12:44 | 47.35869 | 11.69362 | 7816 ft | 228 kts | 235° |
| 2026-04-21 12:45 | 47.34939 | 11.67486 | 7376 ft | 225 kts | 235° |
| 2026-04-21 12:45 | 47.34023 | 11.65621 | 6926 ft | 224 kts | 237° |
| 2026-04-21 12:45 | 47.33214 | 11.63671 | 6463 ft | 222 kts | 244° |
| 2026-04-21 12:45 | 47.32542 | 11.61624 | 6064 ft | 219 kts | 247° |
| 2026-04-21 12:46 | 47.31918 | 11.59619 | 5763 ft | 211 kts | 247° |
| 2026-04-21 12:46 | 47.31328 | 11.57675 | 5462 ft | 204 kts | 248° |
| 2026-04-21 12:46 | 47.30771 | 11.55802 | 5162 ft | 200 kts | 248° |
| 2026-04-21 12:46 | 47.30212 | 11.53916 | 4858 ft | 198 kts | 248° |
| 2026-04-21 12:47 | 47.29675 | 11.52108 | 4537 ft | 193 kts | 249° |
| 2026-04-21 12:47 | 47.29136 | 11.50298 | 4156 ft | 193 kts | 248° |
| 2026-04-21 12:47 | 47.28601 | 11.48507 | 3780 ft | 189 kts | 248° |
| 2026-04-21 12:47 | 47.28091 | 11.46805 | 3709 ft | 173 kts | 248° |
| 2026-04-21 12:48 | 47.27595 | 11.45251 | 3697 ft | 162 kts | 241° |
| 2026-04-21 12:48 | 47.26979 | 11.43931 | 3693 ft | 151 kts | 236° |
| 2026-04-21 12:48 | 47.26344 | 11.42715 | 3700 ft | 148 kts | 234° |
| 2026-04-21 12:48 | 47.25718 | 11.41542 | 3725 ft | 145 kts | 234° |
| 2026-04-21 12:49 | 47.25100 | 11.40391 | 3714 ft | 143 kts | 234° |
| 2026-04-21 12:49 | 47.24484 | 11.39247 | 3719 ft | 142 kts | 234° |
| 2026-04-21 12:49 | 47.23872 | 11.38106 | 3698 ft | 142 kts | 234° |
| 2026-04-21 12:49 | 47.23393 | 11.36855 | 3707 ft | 140 kts | 257° |
| 2026-04-21 12:50 | 47.23226 | 11.35461 | 3711 ft | 138 kts | 266° |
| 2026-04-21 12:50 | 47.23140 | 11.34047 | 3716 ft | 139 kts | 268° |
| 2026-04-21 12:50 | 47.23068 | 11.32650 | 3708 ft | 138 kts | 268° |
| 2026-04-21 12:50 | 47.22999 | 11.31243 | 3715 ft | 138 kts | 268° |
| 2026-04-21 12:51 | 47.22934 | 11.29830 | 3699 ft | 138 kts | 269° |
| 2026-04-21 12:51 | 47.22876 | 11.28421 | 3709 ft | 138 kts | 269° |
| 2026-04-21 12:51 | 47.23158 | 11.27146 | 3569 ft | 133 kts | 324° |
| 2026-04-21 12:51 | 47.24027 | 11.26965 | 3325 ft | 133 kts | 23° |
| 2026-04-21 12:52 | 47.24719 | 11.27873 | 3026 ft | 137 kts | 49° |
| 2026-04-21 12:52 | 47.25230 | 11.29085 | 2695 ft | 141 kts | 62° |
| 2026-04-21 12:52 | 47.25572 | 11.30440 | 2366 ft | 142 kts | 72° |
| 2026-04-21 12:52 | 47.25753 | 11.31852 | 2128 ft | 139 kts | 79° |
| 2026-04-21 12:53 | 47.25895 | 11.33251 | 1929 ft | 138 kts | 80° |
| 2026-04-21 12:53 | 47.26024 | 11.34424 | 1892 ft | 78 kts | 81° |
| 2026-04-21 12:53 | 47.26062 | 11.34775 | 1904 ft | 1 kts | 81° |
| 2026-04-21 12:53 | 47.26065 | 11.34797 | 1901 ft | 5 kts | 81° |
| 2026-04-21 12:54 | 47.26074 | 11.34884 | 1904 ft | 12 kts | 81° |
| 2026-04-21 12:54 | 47.26090 | 11.35034 | 1904 ft | 18 kts | 81° |
| 2026-04-21 12:54 | 47.26109 | 11.35208 | 1904 ft | 13 kts | 84° |
| 2026-04-21 12:54 | 47.26027 | 11.35270 | 1904 ft | 18 kts | 172° |
| 2026-04-21 12:55 | 47.25911 | 11.35278 | 1904 ft | 12 kts | 217° |
| 2026-04-21 12:55 | 47.25883 | 11.35180 | 1900 ft | 8 kts | 213° |
| 2026-04-21 12:55 | 47.25834 | 11.35181 | 1904 ft | 0 kts | 173° |